createdAt,value
2018-03-22T00:02:10.899Z,14.70
2018-03-22T00:04:37.840Z,11.00
2018-03-22T00:07:04.780Z,14.18
2018-03-22T00:09:32.519Z,10.50
2018-03-22T00:11:59.447Z,11.93
2018-03-22T00:14:27.143Z,12.57
2018-03-22T00:16:54.023Z,15.68
2018-03-22T00:19:20.903Z,14.40
2018-03-22T00:21:48.652Z,15.40
2018-03-22T00:24:16.280Z,12.23
2018-03-22T00:26:43.236Z,12.70
2018-03-22T00:29:10.123Z,10.48
2018-03-22T00:31:37.029Z,12.02
2018-03-22T00:34:03.988Z,11.70
2018-03-22T00:36:30.926Z,10.73
2018-03-22T00:38:57.884Z,11.82
2018-03-22T00:41:24.760Z,12.65
2018-03-22T00:43:51.634Z,10.73
2018-03-22T00:46:18.644Z,9.68
2018-03-22T00:48:46.255Z,14.23
2018-03-22T00:51:13.283Z,11.45
2018-03-22T00:53:40.175Z,11.52
2018-03-22T00:56:07.049Z,13.25
2018-03-22T00:58:33.993Z,11.00
2018-03-22T01:01:00.886Z,12.93
2018-03-22T01:03:27.837Z,13.18
2018-03-22T01:05:54.718Z,11.88
2018-03-22T01:08:22.399Z,13.45
2018-03-22T01:10:49.279Z,12.02
2018-03-22T01:13:16.220Z,11.30
2018-03-22T01:15:43.121Z,13.57
2018-03-22T01:18:10.750Z,9.52
2018-03-22T01:20:38.468Z,12.90
2018-03-22T01:23:05.354Z,16.15
2018-03-22T01:25:32.302Z,12.40
2018-03-22T01:27:59.172Z,14.98
2018-03-22T01:30:33.068Z,10.98
2018-03-22T01:32:59.998Z,16.23
2018-03-22T01:35:26.890Z,15.00
2018-03-22T01:37:54.568Z,10.88
2018-03-22T01:40:21.488Z,13.60
2018-03-22T01:42:49.123Z,16.58
2018-03-22T01:45:16.084Z,11.73
2018-03-22T01:47:43.030Z,19.33
2018-03-22T01:50:09.911Z,15.60
2018-03-22T01:52:48.859Z,13.25
2018-03-22T01:55:15.723Z,15.18
2018-03-22T01:57:42.727Z,13.73
2018-03-22T02:00:09.619Z,14.70
2018-03-22T02:02:36.557Z,24.42
2018-03-22T02:05:03.496Z,15.63
2018-03-22T02:07:30.448Z,19.00
2018-03-22T02:09:57.358Z,16.73
2018-03-22T02:12:24.359Z,18.92
2018-03-22T02:14:51.351Z,18.80
2018-03-22T02:17:18.211Z,25.15
2018-03-22T02:19:45.095Z,16.25
2018-03-22T02:22:12.032Z,16.65
2018-03-22T02:24:38.928Z,13.90
2018-03-22T02:27:06.636Z,18.77
2018-03-22T02:29:33.508Z,15.15
2018-03-22T02:32:00.377Z,13.27
2018-03-22T02:34:28.060Z,14.05
2018-03-22T02:36:54.936Z,14.32
2018-03-22T02:39:21.864Z,12.73
2018-03-22T02:41:48.753Z,15.07
2018-03-22T02:44:15.694Z,11.95
2018-03-22T02:46:42.582Z,11.82
2018-03-22T02:49:09.528Z,13.25
2018-03-22T02:51:36.413Z,15.18
2018-03-22T02:54:03.387Z,13.77
2018-03-22T02:56:31.100Z,11.15
2018-03-22T02:58:58.027Z,16.58
2018-03-22T03:01:24.904Z,16.25
2018-03-22T03:03:51.829Z,13.77
2018-03-22T03:06:18.707Z,15.75
2018-03-22T03:08:45.653Z,13.52
2018-03-22T03:11:12.615Z,13.48
2018-03-22T03:13:39.625Z,12.55
2018-03-22T03:16:06.575Z,13.90
2018-03-22T03:18:33.524Z,18.42
2018-03-22T03:21:00.476Z,13.62
2018-03-22T03:23:27.418Z,11.00
2018-03-22T03:25:54.375Z,16.90
2018-03-22T03:28:21.239Z,13.48
2018-03-22T03:30:48.188Z,14.10
2018-03-22T03:33:15.141Z,15.43
2018-03-22T03:35:42.092Z,13.15
2018-03-22T03:38:09.707Z,13.38
2018-03-22T03:40:36.659Z,11.80
2018-03-22T03:43:03.724Z,15.38
2018-03-22T03:45:30.660Z,18.45
2018-03-22T03:47:57.647Z,15.93
2018-03-22T03:50:25.276Z,14.63
2018-03-22T03:52:52.212Z,13.65
2018-03-22T03:55:19.079Z,16.02
2018-03-22T03:57:46.020Z,12.23
2018-03-22T04:00:12.880Z,12.80
2018-03-22T04:02:39.820Z,14.48
2018-03-22T04:05:06.757Z,10.82
2018-03-22T04:07:33.703Z,11.60
2018-03-22T04:10:00.648Z,12.30
2018-03-22T04:12:27.537Z,12.57
2018-03-22T04:14:54.503Z,13.00
2018-03-22T04:17:21.388Z,11.63
2018-03-22T04:19:48.361Z,11.98
2018-03-22T04:22:15.993Z,12.40
2018-03-22T04:24:42.858Z,10.20
2018-03-22T04:27:09.803Z,13.05
2018-03-22T04:29:36.741Z,10.82
2018-03-22T04:32:03.616Z,11.98
2018-03-22T04:34:30.571Z,11.63
2018-03-22T04:36:57.539Z,18.48
2018-03-22T04:39:24.408Z,11.15
2018-03-22T04:41:51.268Z,13.82
2018-03-22T04:44:18.266Z,10.38
2018-03-22T04:46:45.203Z,14.38
2018-03-22T04:49:12.148Z,13.20
2018-03-22T04:51:39.051Z,11.85
2018-03-22T04:54:05.996Z,11.48
2018-03-22T04:56:32.869Z,15.20
2018-03-22T04:58:59.740Z,13.02
2018-03-22T05:01:26.698Z,10.23
2018-03-22T05:03:53.648Z,12.82
2018-03-22T05:06:20.513Z,11.63
2018-03-22T05:08:47.411Z,11.00
2018-03-22T05:11:14.429Z,10.68
2018-03-22T05:13:41.289Z,11.85
2018-03-22T05:16:08.177Z,10.40
2018-03-22T05:18:35.167Z,10.57
2018-03-22T05:21:02.795Z,11.07
2018-03-22T05:23:29.728Z,11.38
2018-03-22T05:25:58.995Z,10.15
2018-03-22T05:28:26.144Z,10.02
2018-03-22T05:30:53.160Z,11.20
2018-03-22T05:33:20.077Z,10.00
2018-03-22T05:35:46.972Z,10.10
2018-03-22T05:38:14.653Z,9.70
2018-03-22T05:40:41.651Z,9.38
2018-03-22T05:43:09.551Z,8.63
2018-03-22T05:45:37.196Z,8.63
2018-03-22T05:48:04.314Z,12.52
2018-03-22T05:50:31.264Z,11.15
2018-03-22T05:52:58.221Z,10.15
2018-03-22T05:55:25.155Z,8.52
2018-03-22T05:57:52.027Z,8.88
2018-03-22T06:00:19.080Z,8.75
2018-03-22T06:02:53.428Z,10.93
2018-03-22T06:05:34.203Z,13.98
2018-03-22T06:08:02.038Z,12.77
2018-03-22T06:10:35.145Z,9.32
2018-03-22T06:13:03.466Z,10.80
2018-03-22T06:15:42.942Z,14.07
2018-03-22T06:18:11.962Z,8.90
2018-03-22T06:20:39.660Z,8.40
2018-03-22T06:23:06.547Z,9.65
2018-03-22T06:25:33.456Z,8.25
2018-03-22T06:28:00.428Z,10.63
2018-03-22T06:30:27.304Z,11.95
2018-03-22T06:32:54.934Z,8.25
2018-03-22T06:35:21.860Z,12.23
2018-03-22T06:37:48.739Z,11.38
2018-03-22T06:40:15.685Z,13.98
2018-03-22T06:42:42.623Z,10.55
2018-03-22T06:45:09.518Z,13.70
2018-03-22T06:47:36.456Z,14.10
2018-03-22T06:50:03.465Z,12.00
2018-03-22T06:52:30.356Z,7.60
2018-03-22T06:54:57.295Z,9.13
2018-03-22T06:57:24.183Z,9.70
2018-03-22T06:59:51.146Z,9.35
2018-03-22T07:02:18.096Z,12.80
2018-03-22T07:04:44.972Z,13.00
2018-03-22T07:07:12.673Z,9.55
2018-03-22T07:09:39.564Z,7.90
2018-03-22T07:12:07.241Z,11.15
2018-03-22T07:14:34.994Z,10.10
2018-03-22T07:17:02.610Z,9.63
2018-03-22T07:19:29.483Z,8.40
2018-03-22T07:21:56.548Z,8.98
2018-03-22T07:24:23.424Z,10.20
2018-03-22T07:26:50.367Z,10.00
2018-03-22T07:29:17.249Z,13.50
2018-03-22T07:31:44.436Z,9.95
2018-03-22T07:34:12.128Z,10.45
2018-03-22T07:36:39.082Z,9.55
2018-03-22T07:39:06.084Z,10.60
2018-03-22T07:41:32.990Z,11.40
2018-03-22T07:44:05.831Z,11.10
2018-03-22T07:46:32.778Z,11.20
2018-03-22T07:49:00.470Z,11.20
2018-03-22T07:51:27.411Z,10.52
2018-03-22T07:53:54.372Z,10.77
2018-03-22T07:56:21.268Z,11.27
2018-03-22T07:58:48.948Z,18.00
2018-03-22T08:01:16.636Z,11.23
2018-03-22T08:03:43.524Z,10.75
2018-03-22T08:06:10.490Z,11.45
2018-03-22T08:08:38.118Z,13.95
2018-03-22T08:11:05.065Z,13.75
2018-03-22T08:13:32.018Z,12.48
2018-03-22T08:15:58.966Z,12.80
2018-03-22T08:18:25.907Z,13.10
2018-03-22T08:20:52.800Z,16.98
2018-03-22T08:23:19.746Z,13.95
2018-03-22T08:25:47.495Z,14.07
2018-03-22T08:28:15.106Z,12.98
2018-03-22T08:30:42.072Z,14.82
2018-03-22T08:33:08.980Z,15.23
2018-03-22T08:35:35.970Z,15.45
2018-03-22T08:38:02.849Z,15.75
2018-03-22T08:40:30.556Z,16.37
2018-03-22T08:42:57.512Z,13.40
2018-03-22T08:45:24.397Z,17.40
2018-03-22T08:47:52.020Z,15.63
2018-03-22T08:50:19.036Z,15.60
2018-03-22T08:52:45.930Z,21.45
2018-03-22T08:55:12.939Z,18.37
2018-03-22T08:57:39.837Z,16.30
2018-03-22T09:00:07.511Z,16.95
2018-03-22T09:02:35.205Z,15.77
2018-03-22T09:05:02.093Z,15.85
2018-03-22T09:07:29.065Z,18.08
2018-03-22T09:09:56.102Z,18.23
2018-03-22T09:12:23.087Z,17.87
2018-03-22T09:14:49.998Z,19.83
2018-03-22T09:17:16.948Z,17.80
2018-03-22T09:19:43.833Z,20.20
2018-03-22T09:22:10.774Z,17.67
2018-03-22T09:24:37.689Z,19.00
2018-03-22T09:27:05.385Z,19.73
2018-03-22T09:29:32.255Z,21.50
2018-03-22T09:31:59.212Z,22.90
2018-03-22T09:34:26.116Z,19.70
2018-03-22T09:36:53.067Z,21.08
2018-03-22T09:39:20.028Z,20.77
2018-03-22T09:41:46.951Z,19.73
2018-03-22T09:44:13.863Z,21.30
2018-03-22T09:46:40.853Z,20.50
2018-03-22T09:49:07.773Z,25.62
2018-03-22T09:51:37.588Z,19.70
2018-03-22T09:54:04.483Z,22.13
2018-03-22T09:56:31.491Z,23.73
2018-03-22T09:58:58.375Z,24.87
2018-03-22T10:01:25.334Z,29.35
2018-03-22T10:03:52.312Z,29.35
2018-03-22T10:06:19.997Z,28.15
2018-03-22T10:08:46.868Z,24.15
2018-03-22T10:11:13.884Z,22.05
2018-03-22T10:13:40.841Z,23.80
2018-03-22T10:16:07.832Z,25.25
2018-03-22T10:18:34.785Z,25.92
2018-03-22T10:21:01.741Z,24.00
2018-03-22T10:23:28.642Z,27.33
2018-03-22T10:25:55.528Z,27.40
2018-03-22T10:28:22.501Z,33.78
2018-03-22T10:30:50.143Z,29.42
2018-03-22T10:33:17.086Z,30.30
2018-03-22T10:35:43.981Z,32.60
2018-03-22T10:38:11.007Z,31.05
2018-03-22T10:40:38.700Z,25.45
2018-03-22T10:43:05.648Z,27.35
2018-03-22T10:45:32.548Z,32.55
2018-03-22T10:48:00.261Z,29.98
2018-03-22T10:50:27.217Z,31.15
2018-03-22T10:52:54.093Z,30.90
2018-03-22T10:55:21.057Z,31.95
2018-03-22T10:57:48.701Z,29.80
2018-03-22T11:00:22.507Z,26.73
2018-03-22T11:02:53.488Z,27.15
2018-03-22T11:05:57.263Z,29.25
2018-03-22T11:08:24.276Z,30.75
2018-03-22T11:10:51.232Z,30.20
2018-03-22T11:13:18.112Z,28.40
2018-03-22T11:15:45.032Z,31.27
2018-03-22T11:18:11.979Z,28.08
2018-03-22T11:20:38.855Z,34.50
2018-03-22T11:23:05.792Z,33.03
2018-03-22T11:25:32.750Z,29.65
2018-03-22T11:27:59.755Z,29.23
2018-03-22T11:30:26.680Z,28.50
2018-03-22T11:32:53.601Z,28.23
2018-03-22T11:35:20.458Z,31.42
2018-03-22T11:37:47.388Z,28.58
2018-03-22T11:40:15.031Z,26.87
2018-03-22T11:42:41.974Z,33.05
2018-03-22T11:45:08.872Z,32.63
2018-03-22T11:47:35.794Z,27.10
2018-03-22T11:50:02.821Z,30.05
2018-03-22T11:52:29.683Z,31.60
2018-03-22T11:54:56.600Z,30.08
2018-03-22T11:57:23.514Z,40.83
2018-03-22T11:59:50.387Z,27.98
2018-03-22T12:02:17.314Z,26.27
2018-03-22T12:04:44.214Z,38.00
2018-03-22T12:07:11.945Z,27.48
2018-03-22T12:09:38.811Z,26.52
2018-03-22T12:12:05.796Z,27.85
2018-03-22T12:14:32.671Z,25.48
2018-03-22T12:16:59.524Z,37.60
2018-03-22T12:19:26.465Z,31.58
2018-03-22T12:21:53.338Z,29.63
2018-03-22T12:24:20.336Z,25.88
2018-03-22T12:26:47.268Z,33.13
2018-03-22T12:29:14.128Z,26.87
2018-03-22T12:31:41.092Z,28.77
2018-03-22T12:34:07.959Z,27.02
2018-03-22T12:36:34.825Z,31.70
2018-03-22T12:39:01.800Z,30.10
2018-03-22T12:41:28.664Z,25.62
2018-03-22T12:43:55.610Z,34.10
2018-03-22T12:46:22.555Z,30.37
2018-03-22T12:52:10.682Z,33.70
2018-03-22T12:54:37.629Z,28.83
2018-03-22T12:57:04.612Z,29.00
2018-03-22T12:59:31.543Z,27.65
2018-03-22T13:02:51.333Z,31.83
2018-03-22T13:05:18.272Z,33.55
2018-03-22T13:07:45.140Z,33.00
2018-03-22T13:10:17.044Z,31.30
2018-03-22T13:12:44.539Z,31.75
2018-03-22T13:15:17.722Z,30.20
2018-03-22T13:17:44.930Z,32.20
2018-03-22T13:20:12.791Z,33.33
2018-03-22T13:22:39.653Z,34.80
2018-03-22T13:25:10.478Z,29.90
2018-03-22T13:27:38.012Z,31.77
2018-03-22T13:30:06.887Z,29.65
2018-03-22T13:32:44.700Z,29.27
2018-03-22T13:35:29.464Z,33.58
2018-03-22T13:37:57.491Z,31.85
2018-03-22T13:40:27.093Z,31.25
2018-03-22T13:42:54.866Z,29.40
2018-03-22T13:45:21.764Z,32.95
2018-03-22T13:47:48.697Z,36.70
2018-03-22T13:50:15.609Z,35.90
2018-03-22T13:52:43.850Z,30.15
2018-03-22T13:55:11.604Z,36.75
2018-03-22T13:57:38.776Z,33.00
2018-03-22T14:00:06.395Z,30.20
2018-03-22T14:02:33.353Z,30.88
2018-03-22T14:05:00.280Z,30.10
2018-03-22T14:07:27.421Z,29.17
2018-03-22T14:09:54.418Z,29.63
2018-03-22T14:12:22.043Z,35.50
2018-03-22T14:14:48.915Z,31.95
2018-03-22T14:17:16.002Z,31.40
2018-03-22T14:19:43.697Z,31.73
2018-03-22T14:22:10.632Z,29.40
2018-03-22T14:24:37.642Z,33.28
2018-03-22T14:27:05.356Z,34.22
2018-03-22T14:29:32.311Z,31.60
2018-03-22T14:31:59.251Z,33.90
2018-03-22T14:34:26.127Z,32.13
2018-03-22T14:36:55.360Z,27.15
2018-03-22T14:39:23.124Z,32.08
2018-03-22T14:41:50.732Z,27.87
2018-03-22T14:44:17.739Z,31.87
2018-03-22T14:46:44.619Z,28.08
2018-03-22T14:49:11.571Z,31.60
2018-03-22T14:51:38.515Z,28.50
2018-03-22T14:54:05.384Z,30.12
2018-03-22T14:56:32.401Z,32.13
2018-03-22T14:58:59.278Z,28.48
2018-03-22T15:01:27.240Z,32.60
2018-03-22T15:03:54.176Z,30.30
2018-03-22T15:06:21.087Z,30.77
2018-03-22T15:08:48.027Z,30.33
2018-03-22T15:11:14.914Z,27.35
2018-03-22T15:13:41.872Z,31.58
2018-03-22T15:16:08.729Z,29.63
2018-03-22T15:18:35.723Z,28.95
2018-03-22T15:21:02.623Z,26.85
2018-03-22T15:23:29.500Z,26.33
2018-03-22T15:25:56.488Z,26.95
2018-03-22T15:28:23.443Z,26.95
2018-03-22T15:30:50.318Z,25.25
2018-03-22T15:33:18.000Z,27.75
2018-03-22T15:35:44.883Z,28.10
2018-03-22T15:38:22.519Z,24.58
2018-03-22T15:43:43.979Z,25.77
2018-03-22T15:46:20.176Z,24.65
2018-03-22T15:48:49.787Z,24.25
2018-03-22T15:51:19.998Z,26.23
2018-03-22T15:53:48.671Z,25.92
2018-03-22T15:56:17.285Z,25.08
2018-03-22T15:58:45.552Z,26.02
2018-03-22T16:01:14.085Z,26.00
2018-03-22T16:03:43.299Z,23.80
2018-03-22T16:06:12.752Z,24.87
2018-03-22T16:08:41.272Z,26.35
2018-03-22T16:11:09.686Z,25.12
2018-03-22T16:13:40.552Z,24.00
2018-03-22T16:18:48.504Z,25.62
2018-03-22T16:21:28.637Z,23.90
2018-03-22T16:23:58.065Z,26.52
2018-03-22T16:26:27.308Z,25.92
2018-03-22T16:28:56.478Z,26.42
2018-03-22T16:31:25.607Z,25.42
2018-03-22T16:33:54.160Z,28.08
2018-03-22T16:36:23.558Z,30.02
2018-03-22T16:38:53.310Z,24.60
2018-03-22T16:41:21.790Z,26.87
2018-03-22T16:43:50.297Z,24.98
2018-03-22T16:46:19.045Z,29.60
2018-03-22T16:48:51.070Z,27.87
2018-03-22T16:51:19.791Z,26.92
2018-03-22T16:53:48.845Z,24.20
2018-03-22T16:56:17.632Z,23.65
2018-03-22T16:58:46.054Z,27.62
2018-03-22T17:01:15.560Z,28.73
2018-03-22T17:03:44.296Z,27.40
2018-03-22T17:06:13.242Z,29.10
2018-03-22T17:08:41.994Z,26.70
2018-03-22T17:11:10.772Z,28.35
2018-03-22T17:13:39.561Z,26.87
2018-03-22T17:16:09.117Z,26.10
2018-03-22T17:18:42.167Z,24.45
2018-03-22T17:21:12.990Z,33.20
2018-03-22T17:23:41.807Z,25.60
2018-03-22T17:26:15.171Z,25.08
2018-03-22T17:28:50.072Z,28.60
2018-03-22T17:31:17.628Z,29.90
2018-03-22T17:33:53.472Z,28.75
2018-03-22T17:36:22.105Z,25.62
2018-03-22T17:38:49.884Z,23.90
2018-03-22T17:41:18.638Z,26.87
2018-03-22T17:43:46.592Z,28.25
2018-03-22T17:46:14.998Z,29.40
2018-03-22T17:48:42.109Z,26.90
2018-03-22T17:51:09.934Z,27.05
2018-03-22T17:53:36.887Z,26.10
2018-03-22T17:56:03.925Z,29.12
2018-03-22T17:58:30.809Z,24.40
2018-03-22T18:00:57.768Z,25.65
2018-03-22T18:03:25.450Z,23.30
2018-03-22T18:05:52.327Z,26.60
2018-03-22T18:08:19.285Z,28.73
2018-03-22T18:10:46.218Z,28.33
2018-03-22T18:13:13.180Z,23.67
2018-03-22T18:15:40.190Z,28.17
2018-03-22T18:18:07.233Z,26.05
2018-03-22T18:20:34.143Z,28.30
2018-03-22T18:23:01.058Z,24.17
2018-03-22T18:25:27.935Z,25.98
2018-03-22T18:27:54.924Z,24.55
2018-03-22T18:30:21.847Z,23.45
2018-03-22T18:32:49.520Z,27.60
2018-03-22T18:35:16.409Z,24.50
2018-03-22T18:37:43.387Z,24.42
2018-03-22T18:40:10.297Z,28.83
2018-03-22T18:42:37.225Z,28.45
2018-03-22T18:45:04.193Z,26.05
2018-03-22T18:47:31.122Z,28.75
2018-03-22T18:49:58.004Z,29.42
2018-03-22T18:52:25.007Z,25.37
2018-03-22T18:54:51.968Z,26.98
2018-03-22T18:57:18.824Z,28.73
2018-03-22T18:59:45.780Z,29.00
2018-03-22T19:02:12.878Z,28.30
2018-03-22T19:04:40.395Z,30.73
2018-03-22T19:07:07.332Z,32.22
2018-03-22T19:09:34.263Z,32.72
2018-03-22T19:12:01.202Z,28.50
2018-03-22T19:14:28.089Z,29.90
2018-03-22T19:16:55.032Z,27.35
2018-03-22T19:19:21.976Z,28.17
2018-03-22T19:21:48.959Z,26.87
2018-03-22T19:24:15.828Z,30.10
2018-03-22T19:26:42.752Z,27.67
2018-03-22T19:29:09.692Z,27.83
2018-03-22T19:31:36.648Z,28.58
2018-03-22T19:34:03.604Z,31.37
2018-03-22T19:36:30.549Z,33.30
2018-03-22T19:38:57.439Z,35.70
2018-03-22T19:41:24.373Z,33.63
2018-03-22T19:43:51.347Z,29.02
2018-03-22T19:46:18.210Z,30.58
2018-03-22T19:48:45.156Z,30.92
2018-03-22T19:51:20.509Z,27.62
2018-03-22T19:53:47.452Z,30.92
2018-03-22T19:56:14.354Z,34.88
2018-03-22T19:58:41.946Z,30.67
2018-03-22T20:01:09.637Z,34.75
2018-03-22T20:03:36.885Z,32.25
2018-03-22T20:06:06.426Z,34.63
2018-03-22T20:08:33.865Z,33.17
2018-03-22T20:11:02.271Z,36.40
2018-03-22T20:13:31.263Z,29.65
2018-03-22T20:16:00.178Z,33.95
2018-03-22T20:18:28.024Z,33.10
2018-03-22T20:20:56.188Z,30.15
2018-03-22T20:23:24.748Z,31.90
2018-03-22T20:25:52.951Z,35.17
2018-03-22T20:28:21.469Z,28.33
2018-03-22T20:30:49.993Z,34.40
2018-03-22T20:33:19.432Z,31.17
2018-03-22T20:35:47.638Z,27.58
2018-03-22T20:38:15.933Z,35.78
2018-03-22T20:40:44.550Z,32.60
2018-03-22T20:43:11.476Z,32.60
2018-03-22T20:45:39.816Z,32.88
2018-03-22T20:48:07.828Z,35.53
2018-03-22T20:50:34.784Z,35.08
2018-03-22T20:53:01.692Z,32.05
2018-03-22T20:55:29.399Z,33.50
2018-03-22T20:57:56.248Z,33.20
2018-03-22T21:00:23.273Z,30.50
2018-03-22T21:02:50.252Z,32.33
2018-03-22T21:05:17.212Z,40.05
2018-03-22T21:07:44.156Z,29.27
2018-03-22T21:10:11.092Z,34.35
2018-03-22T21:12:37.967Z,34.78
2018-03-22T21:15:05.760Z,32.40
2018-03-22T21:17:32.661Z,34.67
2018-03-22T21:19:59.615Z,35.60
2018-03-22T21:22:26.479Z,29.37
2018-03-22T21:24:54.105Z,31.77
2018-03-22T21:27:21.041Z,36.08
2018-03-22T21:29:47.917Z,35.60
2018-03-22T21:32:15.266Z,37.22
2018-03-22T21:34:46.148Z,33.08
2018-03-22T21:37:13.200Z,32.35
2018-03-22T21:39:40.776Z,28.80
2018-03-22T21:42:09.347Z,29.87
2018-03-22T21:44:36.362Z,32.25
2018-03-22T21:47:15.520Z,34.13
2018-03-22T21:49:42.424Z,30.98
2018-03-22T21:52:21.637Z,35.58
2018-03-22T21:55:00.214Z,31.98
2018-03-22T21:57:38.664Z,38.25
2018-03-22T22:00:18.274Z,35.08
2018-03-22T22:02:46.600Z,35.20
2018-03-22T22:05:13.608Z,34.72
2018-03-22T22:07:51.509Z,35.10
2018-03-22T22:10:30.779Z,35.60
2018-03-22T22:13:09.331Z,35.92
2018-03-22T22:15:49.473Z,32.33
2018-03-22T22:18:28.096Z,33.33
2018-03-22T22:21:08.302Z,40.38
2018-03-22T22:23:46.825Z,37.25
2018-03-22T22:26:27.049Z,38.70
2018-03-22T22:29:05.856Z,37.42
2018-03-22T22:31:45.301Z,40.42
2018-03-22T22:34:24.736Z,42.45
2018-03-22T22:36:52.054Z,43.75
2018-03-22T22:39:18.923Z,37.00
2018-03-22T22:41:57.904Z,40.90
2018-03-22T22:44:35.254Z,31.45
2018-03-22T22:47:14.555Z,35.08
2018-03-22T22:49:42.227Z,38.90
2018-03-22T22:52:20.084Z,42.05
2018-03-22T22:54:59.686Z,41.15
2018-03-22T22:57:27.991Z,37.22
2018-03-22T23:00:06.424Z,37.33
2018-03-22T23:02:45.302Z,39.60
2018-03-22T23:05:25.459Z,36.15
2018-03-22T23:07:53.102Z,36.92
2018-03-22T23:10:31.795Z,36.47
2018-03-22T23:13:10.373Z,36.70
2018-03-22T23:15:50.395Z,39.47
2018-03-22T23:18:17.993Z,35.92
2018-03-22T23:20:48.466Z,44.03
2018-03-22T23:23:26.533Z,37.45
2018-03-22T23:25:55.024Z,45.80
2018-03-22T23:28:21.894Z,35.75
2018-03-22T23:30:48.835Z,37.13
2018-03-22T23:33:16.492Z,38.10
2018-03-22T23:35:43.515Z,38.22
2018-03-22T23:38:10.461Z,35.83
2018-03-22T23:40:37.352Z,37.40
2018-03-22T23:43:04.297Z,38.88
2018-03-22T23:45:31.198Z,38.00
2018-03-22T23:47:58.115Z,37.90
2018-03-22T23:50:24.965Z,38.30
2018-03-22T23:52:51.948Z,46.92
2018-03-22T23:55:18.815Z,38.47
2018-03-22T23:57:45.684Z,36.72
